Flight Track Log - Related Links

Times and Time Zones

All times are in EDT time to prevent confusion due to time zone crossing. See the N525MB flight status page for this flight to view local times or setup timezone preferences in your user account.

Time Position Orientation Groundspeed Altitude Reporting Facility
EDT Latitude Longitude Course Direction KTS MPH feet Rate Location/Type
Wed 04:02:56 PM 41.2428 -80.7736 239° Southwest 215 247 5,100  Level Cleveland Center
Wed 04:03:55 PM 41.2114 -80.8397 238° Southwest 215 247 7,900 1,850 Climbing Cleveland Center
Wed 04:04:56 PM 41.1736 -80.9031 232° Southwest 231 266 8,800 1,500 Climbing Cleveland Center
Wed 04:05:55 PM 41.1400 -80.9803 240° Southwest 247 284 10,900 1,966 Climbing Cleveland Center
Wed 04:06:55 PM 41.1086 -81.0433 237° Southwest 247 284 12,700 1,550 Climbing Cleveland Center
Wed 04:07:00 PM 41.0247 -81.1464 234° Southwest  Level FlightAware Approximate
Wed 04:07:55 PM 41.0561 -81.1256 230° Southwest 254 292 14,000  Level Cleveland Center
Wed 04:08:56 PM 41.0078 -81.2050 231° Southwest 269 310 14,000  Level Cleveland Center
Wed 04:09:55 PM 40.9572 -81.2897 232° Southwest 276 318 14,000  Level Cleveland Center
Wed 04:11:35 PM 40.8806 -81.4119 230° Southwest 268 308 14,000  Level Indianapolis Center
Wed 04:12:37 PM 40.8342 -81.4911 232° Southwest 268 308 14,000  Level Indianapolis Center
Wed 04:13:39 PM 40.7869 -81.5661 230° Southwest 263 303 14,000  Level Indianapolis Center
Wed 04:14:41 PM 40.7394 -81.6442 231° Southwest 269 310 14,000  Level Indianapolis Center
Wed 04:15:43 PM 40.6903 -81.7258 232° Southwest 280 322 14,000  Level Indianapolis Center
Wed 04:16:45 PM 40.6411 -81.8053 231° Southwest 279 321 14,000 -645 Level Indianapolis Center
Wed 04:18:00 PM 40.5821 -81.8943 230° Southwest  Level FlightAware Approximate
Wed 04:18:49 PM 40.5333 -81.9772 230° Southwest 276 318 12,000  Level Indianapolis Center
Wed 04:19:28 PM 40.5042 -82.0250 231° Southwest 264 304 11,400 -871 Descending Indianapolis Center
Wed 04:19:51 PM 40.4878 -82.0511 230° Southwest 259 298 11,100 -885 Descending Indianapolis Center
Wed 04:20:29 PM 40.4603 -82.0944 230° Southwest 244 281 10,500 -968 Descending Indianapolis Center
Wed 04:20:53 PM 40.4447 -82.1197 231° Southwest 243 280 10,100 -492 Descending Indianapolis Center
Wed 04:21:30 PM 40.4186 -82.1614 231° Southwest 239 275 10,000 -97 Descending Indianapolis Center
Wed 04:21:55 PM 40.4031 -82.1844 228° Southwest 229 264 10,000  Level Indianapolis Center
Wed 04:22:31 PM 40.3814 -82.2231 234° Southwest 211 243 10,000  Level Indianapolis Center
Wed 04:22:57 PM 40.3667 -82.2444 228° Southwest 211 243 10,000 -273 Level Indianapolis Center
Wed 04:23:37 PM 40.3417 -82.2900 234° Southwest 198 228 9,700 -677 Descending Indianapolis Center
Wed 04:23:59 PM 40.3333 -82.3047 233° Southwest 203 234 9,300 -1,071 Descending Indianapolis Center
Wed 04:25:01 PM 40.3003 -82.3783 240° Southwest 232 267 8,200 -1,132 Descending Indianapolis Center
Wed 04:25:45 PM 40.2694 -82.4436 238° Southwest 238 274 7,300 -968 Descending Indianapolis Center
Wed 04:26:03 PM 40.2653 -82.4517 236° Southwest 235 270 7,200 -1,050 Descending Indianapolis Center
Wed 04:27:05 PM 40.2269 -82.5406 241° Southwest 246 283 5,900 -1,145 Descending Indianapolis Center
Wed 04:27:53 PM 40.1961 -82.6075 239° Southwest 266 306 5,100 -952 Descending Indianapolis Center
Wed 04:28:08 PM 40.1875 -82.6231 234° Southwest 262 302 4,900 -1,091 Descending Indianapolis Center
Wed 04:28:48 PM 40.1622 -82.6803 240° Southwest 256 295 4,100 -1,065 Descending Indianapolis Center
Wed 04:29:10 PM 40.1528 -82.7031 242° Southwest 253 291 3,800 -985 Descending Indianapolis Center
Wed 04:29:55 PM 40.1231 -82.7658 238° Southwest 233 268 3,000 -774 Descending Indianapolis Center
Wed 04:30:12 PM 40.1175 -82.7758 234° Southwest 244 281 3,000  Level Indianapolis Center
Wed 04:30:56 PM 40.0939 -82.8281 239° Southwest 193 222 3,000  Level Indianapolis Center
Wed 04:31:14 PM 40.0900 -82.8381 243° Southwest 212 244 3,000 -197 Level Indianapolis Center
Wed 04:31:57 PM 40.0833 -82.8922 261° West 179 206 2,800 -387 Descending Indianapolis Center
Wed 04:32:16 PM 40.0822 -82.9150 266° West 188 216 2,600 -393 Descending Indianapolis Center
Wed 04:32:58 PM 40.0806 -82.9653 268° West 186 214 2,400 -484 Descending Indianapolis Center
Wed 04:33:18 PM 40.0800 -82.9842 268° West 189 217 2,100 -1,091 Descending Indianapolis Center
Wed 04:33:53 PM 40.0783 -83.0250 267° West 177 204 1,400 -871 Descending Indianapolis Center
Wed 04:34:20 PM 40.0783 -83.0467 270° West 181 208 1,200 -202 Descending Indianapolis Center
Wed 04:35:22 PM 40.0775 -83.0964 269° West 174 200 1,100 -97 Descending Indianapolis Center

Login

Don't have an account? Register now (free) for customized features, flight alerts, and more!